sensor_id;sensor_type;location;lat;lon;timestamp;P1;durP1;ratioP1;P2;durP2;ratioP2
47669;SDS011;33408;52.062;11.722;2023-01-09T00:00:46;9.38;;;6.18;;
47669;SDS011;33408;52.062;11.722;2023-01-09T00:03:14;8.68;;;5.85;;
47669;SDS011;33408;52.062;11.722;2023-01-09T00:05:40;9.50;;;6.03;;
47669;SDS011;33408;52.062;11.722;2023-01-09T00:08:07;9.18;;;5.85;;
47669;SDS011;33408;52.062;11.722;2023-01-09T00:10:33;10.55;;;6.40;;
47669;SDS011;33408;52.062;11.722;2023-01-09T00:13:02;9.07;;;6.13;;
47669;SDS011;33408;52.062;11.722;2023-01-09T00:15:28;9.75;;;6.40;;
47669;SDS011;33408;52.062;11.722;2023-01-09T00:17:55;9.13;;;7.13;;
47669;SDS011;33408;52.062;11.722;2023-01-09T00:20:21;9.95;;;6.30;;
47669;SDS011;33408;52.062;11.722;2023-01-09T00:22:48;9.90;;;6.45;;
47669;SDS011;33408;52.062;11.722;2023-01-09T00:25:15;10.32;;;6.78;;
47669;SDS011;33408;52.062;11.722;2023-01-09T00:27:41;9.00;;;6.65;;
47669;SDS011;33408;52.062;11.722;2023-01-09T00:30:10;10.95;;;6.93;;
47669;SDS011;33408;52.062;11.722;2023-01-09T00:32:37;9.13;;;6.50;;
47669;SDS011;33408;52.062;11.722;2023-01-09T00:35:05;8.80;;;5.95;;
47669;SDS011;33408;52.062;11.722;2023-01-09T00:37:35;11.18;;;7.00;;
47669;SDS011;33408;52.062;11.722;2023-01-09T00:40:01;10.77;;;7.20;;
47669;SDS011;33408;52.062;11.722;2023-01-09T00:42:29;10.43;;;6.68;;
47669;SDS011;33408;52.062;11.722;2023-01-09T00:45:00;10.32;;;6.80;;
47669;SDS011;33408;52.062;11.722;2023-01-09T00:47:31;10.13;;;6.95;;
47669;SDS011;33408;52.062;11.722;2023-01-09T00:50:03;11.95;;;7.32;;
47669;SDS011;33408;52.062;11.722;2023-01-09T00:52:34;10.68;;;7.75;;
47669;SDS011;33408;52.062;11.722;2023-01-09T00:55:02;10.98;;;7.53;;
47669;SDS011;33408;52.062;11.722;2023-01-09T00:57:29;10.82;;;7.57;;
47669;SDS011;33408;52.062;11.722;2023-01-09T00:59:56;10.15;;;7.72;;
47669;SDS011;33408;52.062;11.722;2023-01-09T01:02:23;11.13;;;7.55;;
47669;SDS011;33408;52.062;11.722;2023-01-09T01:04:52;10.38;;;7.25;;
47669;SDS011;33408;52.062;11.722;2023-01-09T01:07:35;10.40;;;7.47;;
47669;SDS011;33408;52.062;11.722;2023-01-09T01:10:06;11.70;;;7.43;;
47669;SDS011;33408;52.062;11.722;2023-01-09T01:12:35;11.60;;;8.57;;
47669;SDS011;33408;52.062;11.722;2023-01-09T01:15:02;10.48;;;7.43;;
47669;SDS011;33408;52.062;11.722;2023-01-09T01:17:28;10.73;;;7.57;;
47669;SDS011;33408;52.062;11.722;2023-01-09T01:19:56;10.32;;;7.25;;
47669;SDS011;33408;52.062;11.722;2023-01-09T01:22:23;11.57;;;8.00;;
47669;SDS011;33408;52.062;11.722;2023-01-09T01:24:50;11.90;;;8.27;;
47669;SDS011;33408;52.062;11.722;2023-01-09T01:27:16;11.13;;;8.73;;
47669;SDS011;33408;52.062;11.722;2023-01-09T01:29:43;13.57;;;9.35;;
47669;SDS011;33408;52.062;11.722;2023-01-09T01:32:10;12.25;;;9.05;;
47669;SDS011;33408;52.062;11.722;2023-01-09T01:34:36;14.65;;;9.75;;
47669;SDS011;33408;52.062;11.722;2023-01-09T01:37:04;14.95;;;10.27;;
47669;SDS011;33408;52.062;11.722;2023-01-09T01:39:31;13.38;;;9.70;;
47669;SDS011;33408;52.062;11.722;2023-01-09T01:41:57;12.75;;;9.85;;
47669;SDS011;33408;52.062;11.722;2023-01-09T01:47:41;14.25;;;10.85;;
47669;SDS011;33408;52.062;11.722;2023-01-09T01:50:13;12.98;;;10.77;;
47669;SDS011;33408;52.062;11.722;2023-01-09T01:52:46;13.32;;;10.05;;
47669;SDS011;33408;52.062;11.722;2023-01-09T01:55:17;13.60;;;10.95;;
47669;SDS011;33408;52.062;11.722;2023-01-09T01:57:46;14.73;;;11.10;;
47669;SDS011;33408;52.062;11.722;2023-01-09T02:00:16;11.90;;;10.25;;
47669;SDS011;33408;52.062;11.722;2023-01-09T02:02:46;13.60;;;10.32;;
47669;SDS011;33408;52.062;11.722;2023-01-09T02:05:13;13.75;;;9.68;;
47669;SDS011;33408;52.062;11.722;2023-01-09T02:07:40;13.60;;;11.13;;
47669;SDS011;33408;52.062;11.722;2023-01-09T02:10:09;14.45;;;11.07;;
47669;SDS011;33408;52.062;11.722;2023-01-09T02:12:35;13.60;;;11.10;;
47669;SDS011;33408;52.062;11.722;2023-01-09T02:15:03;14.43;;;11.10;;
47669;SDS011;33408;52.062;11.722;2023-01-09T02:17:38;13.10;;;10.95;;
47669;SDS011;33408;52.062;11.722;2023-01-09T02:20:40;15.88;;;11.23;;
47669;SDS011;33408;52.062;11.722;2023-01-09T02:23:25;15.13;;;11.07;;
47669;SDS011;33408;52.062;11.722;2023-01-09T02:26:26;13.25;;;10.63;;
47669;SDS011;33408;52.062;11.722;2023-01-09T02:29:06;15.35;;;10.82;;
47669;SDS011;33408;52.062;11.722;2023-01-09T02:31:47;19.00;;;13.57;;
47669;SDS011;33408;52.062;11.722;2023-01-09T02:34:21;14.60;;;12.07;;
47669;SDS011;33408;52.062;11.722;2023-01-09T02:36:55;15.45;;;12.32;;
47669;SDS011;33408;52.062;11.722;2023-01-09T02:39:32;16.45;;;12.07;;
47669;SDS011;33408;52.062;11.722;2023-01-09T02:42:04;14.93;;;12.07;;
47669;SDS011;33408;52.062;11.722;2023-01-09T02:44:35;16.52;;;13.02;;
47669;SDS011;33408;52.062;11.722;2023-01-09T02:47:04;15.20;;;12.43;;
47669;SDS011;33408;52.062;11.722;2023-01-09T02:49:32;15.32;;;12.70;;
47669;SDS011;33408;52.062;11.722;2023-01-09T02:52:06;14.93;;;12.77;;
47669;SDS011;33408;52.062;11.722;2023-01-09T02:54:47;16.17;;;12.68;;
47669;SDS011;33408;52.062;11.722;2023-01-09T02:57:23;16.60;;;13.77;;
47669;SDS011;33408;52.062;11.722;2023-01-09T03:00:03;20.38;;;12.85;;
47669;SDS011;33408;52.062;11.722;2023-01-09T03:02:40;17.10;;;13.95;;
47669;SDS011;33408;52.062;11.722;2023-01-09T03:05:15;16.38;;;13.75;;
47669;SDS011;33408;52.062;11.722;2023-01-09T03:07:47;14.82;;;12.68;;
47669;SDS011;33408;52.062;11.722;2023-01-09T03:10:21;15.05;;;12.73;;
47669;SDS011;33408;52.062;11.722;2023-01-09T03:12:53;15.20;;;13.00;;
47669;SDS011;33408;52.062;11.722;2023-01-09T03:15:22;16.70;;;13.48;;
47669;SDS011;33408;52.062;11.722;2023-01-09T03:17:53;18.58;;;14.07;;
47669;SDS011;33408;52.062;11.722;2023-01-09T03:20:21;18.65;;;13.60;;
47669;SDS011;33408;52.062;11.722;2023-01-09T03:22:52;17.42;;;13.93;;
47669;SDS011;33408;52.062;11.722;2023-01-09T03:25:20;15.98;;;13.52;;
47669;SDS011;33408;52.062;11.722;2023-01-09T03:27:47;18.27;;;14.43;;
47669;SDS011;33408;52.062;11.722;2023-01-09T03:30:17;19.88;;;15.00;;
47669;SDS011;33408;52.062;11.722;2023-01-09T03:32:44;17.63;;;14.90;;
47669;SDS011;33408;52.062;11.722;2023-01-09T03:35:12;16.48;;;14.05;;
47669;SDS011;33408;52.062;11.722;2023-01-09T03:37:38;18.27;;;15.73;;
47669;SDS011;33408;52.062;11.722;2023-01-09T03:40:06;20.55;;;15.77;;
47669;SDS011;33408;52.062;11.722;2023-01-09T03:42:33;18.05;;;15.48;;
47669;SDS011;33408;52.062;11.722;2023-01-09T03:45:00;20.67;;;15.95;;
47669;SDS011;33408;52.062;11.722;2023-01-09T03:47:26;22.27;;;16.40;;
47669;SDS011;33408;52.062;11.722;2023-01-09T03:49:53;19.67;;;17.52;;
47669;SDS011;33408;52.062;11.722;2023-01-09T03:52:21;19.25;;;16.10;;
47669;SDS011;33408;52.062;11.722;2023-01-09T03:54:47;20.30;;;16.80;;
47669;SDS011;33408;52.062;11.722;2023-01-09T03:57:14;21.33;;;16.42;;
47669;SDS011;33408;52.062;11.722;2023-01-09T03:59:40;22.38;;;17.02;;
47669;SDS011;33408;52.062;11.722;2023-01-09T04:02:07;18.48;;;15.82;;
47669;SDS011;33408;52.062;11.722;2023-01-09T04:04:34;20.23;;;16.85;;
47669;SDS011;33408;52.062;11.722;2023-01-09T04:07:00;20.60;;;16.48;;
47669;SDS011;33408;52.062;11.722;2023-01-09T04:09:28;20.35;;;16.80;;
47669;SDS011;33408;52.062;11.722;2023-01-09T04:11:55;19.98;;;16.48;;
47669;SDS011;33408;52.062;11.722;2023-01-09T04:14:21;18.13;;;16.10;;
47669;SDS011;33408;52.062;11.722;2023-01-09T04:16:48;20.67;;;17.65;;
47669;SDS011;33408;52.062;11.722;2023-01-09T04:19:14;21.30;;;17.35;;
47669;SDS011;33408;52.062;11.722;2023-01-09T04:21:41;20.58;;;17.55;;
47669;SDS011;33408;52.062;11.722;2023-01-09T04:24:08;20.35;;;17.38;;
47669;SDS011;33408;52.062;11.722;2023-01-09T04:26:35;22.23;;;17.25;;
47669;SDS011;33408;52.062;11.722;2023-01-09T04:29:02;22.83;;;17.30;;
47669;SDS011;33408;52.062;11.722;2023-01-09T04:31:29;22.90;;;16.50;;
47669;SDS011;33408;52.062;11.722;2023-01-09T04:33:55;24.98;;;17.73;;
47669;SDS011;33408;52.062;11.722;2023-01-09T04:36:22;23.30;;;16.15;;
47669;SDS011;33408;52.062;11.722;2023-01-09T04:38:48;19.50;;;16.27;;
47669;SDS011;33408;52.062;11.722;2023-01-09T04:41:15;20.65;;;17.92;;
47669;SDS011;33408;52.062;11.722;2023-01-09T04:44:03;22.15;;;17.38;;
47669;SDS011;33408;52.062;11.722;2023-01-09T04:46:29;21.00;;;17.45;;
47669;SDS011;33408;52.062;11.722;2023-01-09T04:48:56;19.90;;;17.23;;
47669;SDS011;33408;52.062;11.722;2023-01-09T04:51:22;20.67;;;17.38;;
47669;SDS011;33408;52.062;11.722;2023-01-09T04:53:49;22.20;;;15.88;;
47669;SDS011;33408;52.062;11.722;2023-01-09T04:56:16;22.35;;;17.13;;
47669;SDS011;33408;52.062;11.722;2023-01-09T04:58:42;22.95;;;16.85;;
47669;SDS011;33408;52.062;11.722;2023-01-09T05:01:10;19.88;;;16.45;;
47669;SDS011;33408;52.062;11.722;2023-01-09T05:03:37;19.92;;;16.50;;
47669;SDS011;33408;52.062;11.722;2023-01-09T05:06:03;20.77;;;16.35;;
47669;SDS011;33408;52.062;11.722;2023-01-09T05:08:30;21.13;;;16.65;;
47669;SDS011;33408;52.062;11.722;2023-01-09T05:10:57;19.45;;;16.40;;
47669;SDS011;33408;52.062;11.722;2023-01-09T05:13:24;22.13;;;17.13;;
47669;SDS011;33408;52.062;11.722;2023-01-09T05:15:51;25.02;;;17.45;;
47669;SDS011;33408;52.062;11.722;2023-01-09T05:18:19;21.55;;;16.77;;
47669;SDS011;33408;52.062;11.722;2023-01-09T05:20:45;24.20;;;18.77;;
47669;SDS011;33408;52.062;11.722;2023-01-09T05:23:12;23.42;;;18.58;;
47669;SDS011;33408;52.062;11.722;2023-01-09T05:25:39;20.58;;;16.08;;
47669;SDS011;33408;52.062;11.722;2023-01-09T05:28:05;23.85;;;18.23;;
47669;SDS011;33408;52.062;11.722;2023-01-09T05:30:32;23.20;;;17.77;;
47669;SDS011;33408;52.062;11.722;2023-01-09T05:32:58;22.65;;;18.77;;
47669;SDS011;33408;52.062;11.722;2023-01-09T05:35:26;26.10;;;21.33;;
47669;SDS011;33408;52.062;11.722;2023-01-09T05:37:53;20.10;;;16.05;;
47669;SDS011;33408;52.062;11.722;2023-01-09T05:40:20;20.10;;;16.58;;
47669;SDS011;33408;52.062;11.722;2023-01-09T05:42:47;22.25;;;17.38;;
47669;SDS011;33408;52.062;11.722;2023-01-09T05:45:14;20.45;;;15.20;;
47669;SDS011;33408;52.062;11.722;2023-01-09T05:47:41;20.90;;;16.05;;
47669;SDS011;33408;52.062;11.722;2023-01-09T05:50:09;21.42;;;16.55;;
47669;SDS011;33408;52.062;11.722;2023-01-09T05:52:38;20.98;;;15.80;;
47669;SDS011;33408;52.062;11.722;2023-01-09T05:55:05;20.52;;;15.85;;
47669;SDS011;33408;52.062;11.722;2023-01-09T05:57:33;21.08;;;16.05;;
47669;SDS011;33408;52.062;11.722;2023-01-09T05:59:59;19.83;;;16.30;;
47669;SDS011;33408;52.062;11.722;2023-01-09T06:02:26;21.85;;;16.35;;
47669;SDS011;33408;52.062;11.722;2023-01-09T06:04:52;20.95;;;15.95;;
47669;SDS011;33408;52.062;11.722;2023-01-09T06:07:19;18.70;;;14.77;;
47669;SDS011;33408;52.062;11.722;2023-01-09T06:09:47;20.83;;;16.52;;
47669;SDS011;33408;52.062;11.722;2023-01-09T06:12:13;18.15;;;14.88;;
47669;SDS011;33408;52.062;11.722;2023-01-09T06:14:40;19.67;;;16.23;;
47669;SDS011;33408;52.062;11.722;2023-01-09T06:17:07;20.08;;;15.52;;
47669;SDS011;33408;52.062;11.722;2023-01-09T06:19:34;20.25;;;15.02;;
47669;SDS011;33408;52.062;11.722;2023-01-09T06:22:01;19.52;;;15.18;;
47669;SDS011;33408;52.062;11.722;2023-01-09T06:24:27;19.33;;;14.35;;
47669;SDS011;33408;52.062;11.722;2023-01-09T06:26:55;21.15;;;14.82;;
47669;SDS011;33408;52.062;11.722;2023-01-09T06:29:22;18.63;;;14.90;;
47669;SDS011;33408;52.062;11.722;2023-01-09T06:31:48;19.73;;;14.95;;
47669;SDS011;33408;52.062;11.722;2023-01-09T06:34:15;19.55;;;15.43;;
47669;SDS011;33408;52.062;11.722;2023-01-09T06:36:41;22.80;;;14.63;;
47669;SDS011;33408;52.062;11.722;2023-01-09T06:39:08;26.00;;;16.10;;
47669;SDS011;33408;52.062;11.722;2023-01-09T06:41:34;22.35;;;15.65;;
47669;SDS011;33408;52.062;11.722;2023-01-09T06:44:02;19.77;;;14.98;;
47669;SDS011;33408;52.062;11.722;2023-01-09T06:46:29;18.27;;;14.15;;
47669;SDS011;33408;52.062;11.722;2023-01-09T06:48:56;18.20;;;14.77;;
47669;SDS011;33408;52.062;11.722;2023-01-09T06:51:22;18.45;;;13.63;;
47669;SDS011;33408;52.062;11.722;2023-01-09T06:53:49;18.92;;;14.45;;
47669;SDS011;33408;52.062;11.722;2023-01-09T06:56:15;20.83;;;13.63;;
47669;SDS011;33408;52.062;11.722;2023-01-09T06:58:42;17.85;;;13.68;;
47669;SDS011;33408;52.062;11.722;2023-01-09T07:01:10;18.45;;;14.35;;
47669;SDS011;33408;52.062;11.722;2023-01-09T07:03:36;18.08;;;13.75;;
47669;SDS011;33408;52.062;11.722;2023-01-09T07:06:03;19.45;;;14.05;;
47669;SDS011;33408;52.062;11.722;2023-01-09T07:08:30;19.23;;;13.88;;
47669;SDS011;33408;52.062;11.722;2023-01-09T07:10:58;18.10;;;14.55;;
47669;SDS011;33408;52.062;11.722;2023-01-09T07:13:24;17.95;;;14.60;;
47669;SDS011;33408;52.062;11.722;2023-01-09T07:15:51;20.73;;;15.23;;
47669;SDS011;33408;52.062;11.722;2023-01-09T07:18:19;17.98;;;14.20;;
47669;SDS011;33408;52.062;11.722;2023-01-09T07:20:46;19.88;;;14.38;;
47669;SDS011;33408;52.062;11.722;2023-01-09T07:23:14;17.73;;;14.18;;
47669;SDS011;33408;52.062;11.722;2023-01-09T07:25:42;18.70;;;14.07;;
47669;SDS011;33408;52.062;11.722;2023-01-09T07:28:10;20.33;;;14.52;;
47669;SDS011;33408;52.062;11.722;2023-01-09T07:30:36;19.35;;;14.02;;
47669;SDS011;33408;52.062;11.722;2023-01-09T07:33:03;17.48;;;13.43;;
47669;SDS011;33408;52.062;11.722;2023-01-09T07:35:31;18.13;;;14.18;;
47669;SDS011;33408;52.062;11.722;2023-01-09T07:37:57;17.63;;;12.43;;
47669;SDS011;33408;52.062;11.722;2023-01-09T07:40:24;17.27;;;13.20;;
47669;SDS011;33408;52.062;11.722;2023-01-09T07:42:51;18.27;;;13.15;;
47669;SDS011;33408;52.062;11.722;2023-01-09T07:45:18;17.00;;;13.05;;
47669;SDS011;33408;52.062;11.722;2023-01-09T07:47:45;17.00;;;12.90;;
47669;SDS011;33408;52.062;11.722;2023-01-09T07:50:11;13.60;;;10.88;;
47669;SDS011;33408;52.062;11.722;2023-01-09T07:52:39;19.23;;;12.32;;
47669;SDS011;33408;52.062;11.722;2023-01-09T07:55:06;14.85;;;10.70;;
47669;SDS011;33408;52.062;11.722;2023-01-09T07:57:34;13.18;;;10.07;;
47669;SDS011;33408;52.062;11.722;2023-01-09T08:00:00;14.38;;;10.27;;
47669;SDS011;33408;52.062;11.722;2023-01-09T08:02:30;14.82;;;10.60;;
47669;SDS011;33408;52.062;11.722;2023-01-09T08:04:56;12.63;;;9.77;;
47669;SDS011;33408;52.062;11.722;2023-01-09T08:07:23;13.38;;;10.40;;
47669;SDS011;33408;52.062;11.722;2023-01-09T08:09:51;14.07;;;10.35;;
47669;SDS011;33408;52.062;11.722;2023-01-09T08:12:18;13.63;;;10.48;;
47669;SDS011;33408;52.062;11.722;2023-01-09T08:14:44;11.40;;;8.63;;
47669;SDS011;33408;52.062;11.722;2023-01-09T08:17:11;12.93;;;9.73;;
47669;SDS011;33408;52.062;11.722;2023-01-09T08:19:37;14.60;;;8.55;;
47669;SDS011;33408;52.062;11.722;2023-01-09T08:22:04;14.25;;;8.48;;
47669;SDS011;33408;52.062;11.722;2023-01-09T08:24:30;12.63;;;8.65;;
47669;SDS011;33408;52.062;11.722;2023-01-09T08:26:59;15.68;;;7.72;;
47669;SDS011;33408;52.062;11.722;2023-01-09T08:29:27;11.10;;;8.15;;
47669;SDS011;33408;52.062;11.722;2023-01-09T08:31:54;13.63;;;7.80;;
47669;SDS011;33408;52.062;11.722;2023-01-09T08:34:21;11.65;;;7.88;;
47669;SDS011;33408;52.062;11.722;2023-01-09T08:36:47;10.32;;;7.80;;
47669;SDS011;33408;52.062;11.722;2023-01-09T08:39:14;11.48;;;7.55;;
47669;SDS011;33408;52.062;11.722;2023-01-09T08:41:40;9.75;;;6.88;;
47669;SDS011;33408;52.062;11.722;2023-01-09T08:44:26;33.67;;;10.85;;
47669;SDS011;33408;52.062;11.722;2023-01-09T08:47:10;22.77;;;9.63;;
47669;SDS011;33408;52.062;11.722;2023-01-09T08:49:38;15.23;;;7.88;;
47669;SDS011;33408;52.062;11.722;2023-01-09T08:52:05;11.15;;;6.38;;
47669;SDS011;33408;52.062;11.722;2023-01-09T08:54:32;9.10;;;5.40;;
47669;SDS011;33408;52.062;11.722;2023-01-09T08:57:00;7.80;;;4.20;;
47669;SDS011;33408;52.062;11.722;2023-01-09T08:59:28;6.88;;;4.00;;
47669;SDS011;33408;52.062;11.722;2023-01-09T09:01:55;7.13;;;3.90;;
47669;SDS011;33408;52.062;11.722;2023-01-09T09:04:22;7.72;;;4.00;;
47669;SDS011;33408;52.062;11.722;2023-01-09T09:06:48;7.80;;;4.35;;
47669;SDS011;33408;52.062;11.722;2023-01-09T09:09:15;6.78;;;4.00;;
47669;SDS011;33408;52.062;11.722;2023-01-09T09:11:43;6.60;;;3.92;;
47669;SDS011;33408;52.062;11.722;2023-01-09T09:14:09;7.63;;;3.92;;
47669;SDS011;33408;52.062;11.722;2023-01-09T09:16:54;8.15;;;3.75;;
47669;SDS011;33408;52.062;11.722;2023-01-09T09:19:21;7.40;;;3.97;;
47669;SDS011;33408;52.062;11.722;2023-01-09T09:21:48;7.40;;;3.35;;
47669;SDS011;33408;52.062;11.722;2023-01-09T09:24:14;7.80;;;4.15;;
47669;SDS011;33408;52.062;11.722;2023-01-09T09:26:41;6.13;;;3.40;;
47669;SDS011;33408;52.062;11.722;2023-01-09T09:29:07;7.50;;;3.47;;
47669;SDS011;33408;52.062;11.722;2023-01-09T09:31:35;6.85;;;3.42;;
47669;SDS011;33408;52.062;11.722;2023-01-09T09:34:03;5.78;;;2.92;;
47669;SDS011;33408;52.062;11.722;2023-01-09T09:36:30;5.60;;;3.17;;
47669;SDS011;33408;52.062;11.722;2023-01-09T09:38:56;5.22;;;2.58;;
47669;SDS011;33408;52.062;11.722;2023-01-09T09:44:38;5.70;;;3.03;;
47669;SDS011;33408;52.062;11.722;2023-01-09T09:47:25;6.85;;;2.80;;
47669;SDS011;33408;52.062;11.722;2023-01-09T09:50:07;8.77;;;3.38;;
47669;SDS011;33408;52.062;11.722;2023-01-09T09:52:44;5.85;;;2.80;;
47669;SDS011;33408;52.062;11.722;2023-01-09T09:55:17;8.27;;;3.28;;
47669;SDS011;33408;52.062;11.722;2023-01-09T09:57:48;5.57;;;2.72;;
47669;SDS011;33408;52.062;11.722;2023-01-09T10:00:17;5.20;;;2.83;;
47669;SDS011;33408;52.062;11.722;2023-01-09T10:02:47;5.93;;;2.53;;
47669;SDS011;33408;52.062;11.722;2023-01-09T10:05:22;4.85;;;2.42;;
47669;SDS011;33408;52.062;11.722;2023-01-09T10:07:52;6.88;;;2.88;;
47669;SDS011;33408;52.062;11.722;2023-01-09T10:10:21;6.90;;;2.80;;
47669;SDS011;33408;52.062;11.722;2023-01-09T10:12:55;6.78;;;3.20;;
47669;SDS011;33408;52.062;11.722;2023-01-09T10:15:26;6.82;;;3.00;;
47669;SDS011;33408;52.062;11.722;2023-01-09T10:18:04;5.45;;;2.33;;
47669;SDS011;33408;52.062;11.722;2023-01-09T10:20:43;6.20;;;2.47;;
47669;SDS011;33408;52.062;11.722;2023-01-09T10:26:24;4.50;;;2.13;;
47669;SDS011;33408;52.062;11.722;2023-01-09T10:31:48;3.85;;;1.83;;
47669;SDS011;33408;52.062;11.722;2023-01-09T10:34:29;6.60;;;2.08;;
47669;SDS011;33408;52.062;11.722;2023-01-09T10:37:11;9.35;;;2.40;;
47669;SDS011;33408;52.062;11.722;2023-01-09T10:39:42;6.57;;;2.75;;
47669;SDS011;33408;52.062;11.722;2023-01-09T10:42:15;3.78;;;1.92;;
47669;SDS011;33408;52.062;11.722;2023-01-09T10:47:18;5.90;;;2.10;;
47669;SDS011;33408;52.062;11.722;2023-01-09T10:49:48;5.90;;;2.40;;
47669;SDS011;33408;52.062;11.722;2023-01-09T10:52:18;6.05;;;2.53;;
47669;SDS011;33408;52.062;11.722;2023-01-09T10:54:51;7.80;;;3.40;;
47669;SDS011;33408;52.062;11.722;2023-01-09T10:57:30;5.20;;;2.40;;
47669;SDS011;33408;52.062;11.722;2023-01-09T11:00:04;4.90;;;1.92;;
47669;SDS011;33408;52.062;11.722;2023-01-09T11:02:33;7.50;;;2.28;;
47669;SDS011;33408;52.062;11.722;2023-01-09T11:05:00;6.72;;;1.98;;
47669;SDS011;33408;52.062;11.722;2023-01-09T11:07:29;4.70;;;2.03;;
47669;SDS011;33408;52.062;11.722;2023-01-09T11:10:01;6.28;;;2.45;;
47669;SDS011;33408;52.062;11.722;2023-01-09T11:12:32;4.88;;;2.15;;
47669;SDS011;33408;52.062;11.722;2023-01-09T11:15:16;6.28;;;2.22;;
47669;SDS011;33408;52.062;11.722;2023-01-09T11:20:44;3.92;;;2.15;;
47669;SDS011;33408;52.062;11.722;2023-01-09T11:23:23;6.78;;;2.15;;
47669;SDS011;33408;52.062;11.722;2023-01-09T11:25:54;5.28;;;2.00;;
47669;SDS011;33408;52.062;11.722;2023-01-09T11:28:23;2.78;;;1.60;;
47669;SDS011;33408;52.062;11.722;2023-01-09T11:30:50;7.97;;;1.92;;
47669;SDS011;33408;52.062;11.722;2023-01-09T11:33:19;5.03;;;1.38;;
47669;SDS011;33408;52.062;11.722;2023-01-09T11:35:53;3.75;;;1.70;;
47669;SDS011;33408;52.062;11.722;2023-01-09T11:38:24;5.43;;;2.00;;
47669;SDS011;33408;52.062;11.722;2023-01-09T11:40:51;5.43;;;1.70;;
47669;SDS011;33408;52.062;11.722;2023-01-09T11:43:26;4.05;;;1.80;;
47669;SDS011;33408;52.062;11.722;2023-01-09T11:45:57;6.38;;;2.33;;
47669;SDS011;33408;52.062;11.722;2023-01-09T11:48:27;4.55;;;2.17;;
47669;SDS011;33408;52.062;11.722;2023-01-09T11:50:56;5.20;;;2.78;;
47669;SDS011;33408;52.062;11.722;2023-01-09T11:53:25;5.28;;;2.00;;
47669;SDS011;33408;52.062;11.722;2023-01-09T11:55:55;6.07;;;2.20;;
47669;SDS011;33408;52.062;11.722;2023-01-09T11:58:27;5.75;;;2.20;;
47669;SDS011;33408;52.062;11.722;2023-01-09T12:00:58;7.75;;;2.13;;
47669;SDS011;33408;52.062;11.722;2023-01-09T12:06:29;4.85;;;1.50;;
47669;SDS011;33408;52.062;11.722;2023-01-09T12:09:07;5.40;;;1.75;;
47669;SDS011;33408;52.062;11.722;2023-01-09T12:11:41;4.10;;;1.20;;
47669;SDS011;33408;52.062;11.722;2023-01-09T12:14:18;3.60;;;1.23;;
47669;SDS011;33408;52.062;11.722;2023-01-09T12:16:59;4.07;;;1.10;;
47669;SDS011;33408;52.062;11.722;2023-01-09T12:19:41;3.38;;;1.23;;
47669;SDS011;33408;52.062;11.722;2023-01-09T12:22:21;3.35;;;1.15;;
47669;SDS011;33408;52.062;11.722;2023-01-09T12:25:05;3.92;;;1.13;;
47669;SDS011;33408;52.062;11.722;2023-01-09T12:27:49;3.10;;;1.17;;
47669;SDS011;33408;52.062;11.722;2023-01-09T12:30:39;5.28;;;1.00;;
47669;SDS011;33408;52.062;11.722;2023-01-09T12:33:22;3.63;;;1.10;;
47669;SDS011;33408;52.062;11.722;2023-01-09T12:36:02;1.60;;;0.77;;
47669;SDS011;33408;52.062;11.722;2023-01-09T12:38:40;4.90;;;1.17;;
47669;SDS011;33408;52.062;11.722;2023-01-09T12:41:23;2.90;;;0.80;;
47669;SDS011;33408;52.062;11.722;2023-01-09T12:50:08;0.75;;;0.60;;
47669;SDS011;33408;52.062;11.722;2023-01-09T12:52:48;3.50;;;0.90;;
47669;SDS011;33408;52.062;11.722;2023-01-09T12:55:29;3.75;;;0.70;;
47669;SDS011;33408;52.062;11.722;2023-01-09T12:58:02;3.00;;;0.68;;
47669;SDS011;33408;52.062;11.722;2023-01-09T13:00:39;1.90;;;0.80;;
47669;SDS011;33408;52.062;11.722;2023-01-09T13:03:09;1.67;;;0.73;;
47669;SDS011;33408;52.062;11.722;2023-01-09T13:05:44;2.00;;;0.85;;
47669;SDS011;33408;52.062;11.722;2023-01-09T13:08:14;2.75;;;1.10;;
47669;SDS011;33408;52.062;11.722;2023-01-09T13:10:46;3.88;;;1.15;;
47669;SDS011;33408;52.062;11.722;2023-01-09T13:13:19;3.78;;;1.70;;
47669;SDS011;33408;52.062;11.722;2023-01-09T13:15:51;3.20;;;1.17;;
47669;SDS011;33408;52.062;11.722;2023-01-09T13:18:23;4.95;;;1.20;;
47669;SDS011;33408;52.062;11.722;2023-01-09T13:20:55;2.58;;;1.02;;
47669;SDS011;33408;52.062;11.722;2023-01-09T13:23:26;5.22;;;0.90;;
47669;SDS011;33408;52.062;11.722;2023-01-09T13:25:58;2.75;;;0.95;;
47669;SDS011;33408;52.062;11.722;2023-01-09T13:28:31;9.68;;;1.65;;
47669;SDS011;33408;52.062;11.722;2023-01-09T13:33:54;3.80;;;1.00;;
47669;SDS011;33408;52.062;11.722;2023-01-09T13:36:23;4.88;;;1.98;;
47669;SDS011;33408;52.062;11.722;2023-01-09T13:38:54;5.60;;;2.67;;
47669;SDS011;33408;52.062;11.722;2023-01-09T13:41:23;6.97;;;2.83;;
47669;SDS011;33408;52.062;11.722;2023-01-09T13:44:19;8.40;;;3.58;;
47669;SDS011;33408;52.062;11.722;2023-01-09T13:46:49;6.05;;;1.98;;
47669;SDS011;33408;52.062;11.722;2023-01-09T13:49:30;5.50;;;2.05;;
47669;SDS011;33408;52.062;11.722;2023-01-09T13:52:00;6.05;;;1.65;;
47669;SDS011;33408;52.062;11.722;2023-01-09T14:00:53;3.53;;;1.23;;
47669;SDS011;33408;52.062;11.722;2023-01-09T14:03:28;11.43;;;1.52;;
47669;SDS011;33408;52.062;11.722;2023-01-09T14:08:49;2.45;;;1.13;;
47669;SDS011;33408;52.062;11.722;2023-01-09T14:11:36;3.30;;;1.15;;
47669;SDS011;33408;52.062;11.722;2023-01-09T14:14:03;5.18;;;1.33;;
47669;SDS011;33408;52.062;11.722;2023-01-09T14:16:34;3.70;;;1.38;;
47669;SDS011;33408;52.062;11.722;2023-01-09T14:19:04;3.42;;;1.33;;
47669;SDS011;33408;52.062;11.722;2023-01-09T14:21:46;3.10;;;1.15;;
47669;SDS011;33408;52.062;11.722;2023-01-09T14:24:20;5.90;;;1.70;;
47669;SDS011;33408;52.062;11.722;2023-01-09T14:26:50;6.13;;;1.95;;
47669;SDS011;33408;52.062;11.722;2023-01-09T14:29:36;5.47;;;1.70;;
47669;SDS011;33408;52.062;11.722;2023-01-09T14:35:20;2.88;;;1.00;;
47669;SDS011;33408;52.062;11.722;2023-01-09T14:37:58;3.42;;;1.00;;
47669;SDS011;33408;52.062;11.722;2023-01-09T14:40:29;3.55;;;1.20;;
47669;SDS011;33408;52.062;11.722;2023-01-09T14:42:59;2.72;;;0.95;;
47669;SDS011;33408;52.062;11.722;2023-01-09T14:45:36;4.32;;;1.23;;
47669;SDS011;33408;52.062;11.722;2023-01-09T14:48:06;4.38;;;1.27;;
47669;SDS011;33408;52.062;11.722;2023-01-09T14:50:39;5.37;;;1.50;;
47669;SDS011;33408;52.062;11.722;2023-01-09T14:55:39;2.25;;;1.00;;
47669;SDS011;33408;52.062;11.722;2023-01-09T14:58:22;7.78;;;1.70;;
47669;SDS011;33408;52.062;11.722;2023-01-09T15:00:51;8.32;;;3.65;;
47669;SDS011;33408;52.062;11.722;2023-01-09T15:03:22;4.03;;;1.40;;
47669;SDS011;33408;52.062;11.722;2023-01-09T15:05:52;3.40;;;1.73;;
47669;SDS011;33408;52.062;11.722;2023-01-09T15:08:20;3.80;;;1.60;;
47669;SDS011;33408;52.062;11.722;2023-01-09T15:10:49;4.32;;;1.63;;
47669;SDS011;33408;52.062;11.722;2023-01-09T15:13:20;4.18;;;1.40;;
47669;SDS011;33408;52.062;11.722;2023-01-09T15:15:54;3.47;;;1.35;;
47669;SDS011;33408;52.062;11.722;2023-01-09T15:18:21;3.05;;;1.25;;
47669;SDS011;33408;52.062;11.722;2023-01-09T15:20:54;4.90;;;1.77;;
47669;SDS011;33408;52.062;11.722;2023-01-09T15:23:24;4.68;;;1.90;;